sensor_id;sensor_type;location;lat;lon;timestamp;P1;durP1;ratioP1;P2;durP2;ratioP2
49366;SDS011;35245;52.026;8.540;2022-10-10T00:02:10;6.28;;;3.95;;
49366;SDS011;35245;52.026;8.540;2022-10-10T00:04:37;5.25;;;3.35;;
49366;SDS011;35245;52.026;8.540;2022-10-10T00:07:04;5.05;;;3.33;;
49366;SDS011;35245;52.026;8.540;2022-10-10T00:09:31;8.93;;;3.05;;
49366;SDS011;35245;52.026;8.540;2022-10-10T00:11:58;5.97;;;2.70;;
49366;SDS011;35245;52.026;8.540;2022-10-10T00:14:25;6.32;;;3.00;;
49366;SDS011;35245;52.026;8.540;2022-10-10T00:16:52;6.60;;;2.80;;
49366;SDS011;35245;52.026;8.540;2022-10-10T00:19:23;5.32;;;2.65;;
49366;SDS011;35245;52.026;8.540;2022-10-10T00:21:50;5.70;;;2.97;;
49366;SDS011;35245;52.026;8.540;2022-10-10T00:24:19;6.93;;;2.80;;
49366;SDS011;35245;52.026;8.540;2022-10-10T00:26:46;6.45;;;2.67;;
49366;SDS011;35245;52.026;8.540;2022-10-10T00:29:13;5.82;;;3.00;;
49366;SDS011;35245;52.026;8.540;2022-10-10T00:31:40;7.47;;;2.85;;
49366;SDS011;35245;52.026;8.540;2022-10-10T00:34:07;4.10;;;2.35;;
49366;SDS011;35245;52.026;8.540;2022-10-10T00:36:36;5.47;;;2.95;;
49366;SDS011;35245;52.026;8.540;2022-10-10T00:39:03;3.92;;;2.55;;
49366;SDS011;35245;52.026;8.540;2022-10-10T00:41:30;6.28;;;3.00;;
49366;SDS011;35245;52.026;8.540;2022-10-10T00:44:02;5.65;;;2.60;;
49366;SDS011;35245;52.026;8.540;2022-10-10T00:46:30;6.55;;;2.45;;
49366;SDS011;35245;52.026;8.540;2022-10-10T00:48:57;6.80;;;2.58;;
49366;SDS011;35245;52.026;8.540;2022-10-10T00:51:24;5.90;;;2.53;;
49366;SDS011;35245;52.026;8.540;2022-10-10T00:53:54;4.45;;;2.30;;
49366;SDS011;35245;52.026;8.540;2022-10-10T00:56:25;5.80;;;2.25;;
49366;SDS011;35245;52.026;8.540;2022-10-10T00:58:53;5.20;;;2.70;;
49366;SDS011;35245;52.026;8.540;2022-10-10T01:01:21;8.48;;;2.35;;
49366;SDS011;35245;52.026;8.540;2022-10-10T01:03:48;6.30;;;2.85;;
49366;SDS011;35245;52.026;8.540;2022-10-10T01:06:15;3.60;;;2.00;;
49366;SDS011;35245;52.026;8.540;2022-10-10T01:08:43;3.40;;;2.33;;
49366;SDS011;35245;52.026;8.540;2022-10-10T01:11:20;3.65;;;2.63;;
49366;SDS011;35245;52.026;8.540;2022-10-10T01:13:55;4.30;;;2.35;;
49366;SDS011;35245;52.026;8.540;2022-10-10T01:16:27;4.43;;;2.65;;
49366;SDS011;35245;52.026;8.540;2022-10-10T01:19:01;3.95;;;2.42;;
49366;SDS011;35245;52.026;8.540;2022-10-10T01:21:40;7.88;;;3.40;;
49366;SDS011;35245;52.026;8.540;2022-10-10T01:24:22;4.93;;;2.60;;
49366;SDS011;35245;52.026;8.540;2022-10-10T01:29:47;7.32;;;2.65;;
49366;SDS011;35245;52.026;8.540;2022-10-10T01:32:19;8.15;;;2.60;;
49366;SDS011;35245;52.026;8.540;2022-10-10T01:34:54;4.70;;;2.38;;
49366;SDS011;35245;52.026;8.540;2022-10-10T01:37:27;6.40;;;2.58;;
49366;SDS011;35245;52.026;8.540;2022-10-10T01:40:02;6.60;;;2.53;;
49366;SDS011;35245;52.026;8.540;2022-10-10T01:42:33;4.55;;;2.53;;
49366;SDS011;35245;52.026;8.540;2022-10-10T01:45:06;4.07;;;2.47;;
49366;SDS011;35245;52.026;8.540;2022-10-10T01:47:33;3.95;;;2.05;;
49366;SDS011;35245;52.026;8.540;2022-10-10T01:50:02;6.70;;;2.28;;
49366;SDS011;35245;52.026;8.540;2022-10-10T01:52:33;5.78;;;2.28;;
49366;SDS011;35245;52.026;8.540;2022-10-10T01:55:13;6.90;;;2.55;;
49366;SDS011;35245;52.026;8.540;2022-10-10T01:57:49;5.70;;;2.58;;
49366;SDS011;35245;52.026;8.540;2022-10-10T02:00:26;6.20;;;2.72;;
49366;SDS011;35245;52.026;8.540;2022-10-10T02:02:55;6.43;;;2.00;;
49366;SDS011;35245;52.026;8.540;2022-10-10T02:05:24;3.30;;;2.42;;
49366;SDS011;35245;52.026;8.540;2022-10-10T02:07:56;4.25;;;2.00;;
49366;SDS011;35245;52.026;8.540;2022-10-10T02:10:27;7.15;;;2.45;;
49366;SDS011;35245;52.026;8.540;2022-10-10T02:12:57;3.72;;;2.10;;
49366;SDS011;35245;52.026;8.540;2022-10-10T02:15:27;4.80;;;2.40;;
49366;SDS011;35245;52.026;8.540;2022-10-10T02:17:56;4.75;;;2.25;;
49366;SDS011;35245;52.026;8.540;2022-10-10T02:20:25;5.20;;;2.08;;
49366;SDS011;35245;52.026;8.540;2022-10-10T02:22:53;4.35;;;2.80;;
49366;SDS011;35245;52.026;8.540;2022-10-10T02:25:22;4.55;;;2.13;;
49366;SDS011;35245;52.026;8.540;2022-10-10T02:27:56;5.97;;;2.45;;
49366;SDS011;35245;52.026;8.540;2022-10-10T02:30:30;4.18;;;2.08;;
49366;SDS011;35245;52.026;8.540;2022-10-10T02:32:59;4.80;;;2.33;;
49366;SDS011;35245;52.026;8.540;2022-10-10T02:35:28;5.65;;;2.05;;
49366;SDS011;35245;52.026;8.540;2022-10-10T02:37:57;5.15;;;2.13;;
49366;SDS011;35245;52.026;8.540;2022-10-10T02:40:27;6.00;;;2.83;;
49366;SDS011;35245;52.026;8.540;2022-10-10T02:42:55;7.80;;;3.10;;
49366;SDS011;35245;52.026;8.540;2022-10-10T02:45:25;5.13;;;2.28;;
49366;SDS011;35245;52.026;8.540;2022-10-10T02:47:54;4.80;;;2.10;;
49366;SDS011;35245;52.026;8.540;2022-10-10T02:50:21;6.00;;;2.85;;
49366;SDS011;35245;52.026;8.540;2022-10-10T02:52:48;6.53;;;3.83;;
49366;SDS011;35245;52.026;8.540;2022-10-10T02:55:15;4.15;;;2.47;;
49366;SDS011;35245;52.026;8.540;2022-10-10T02:57:42;5.50;;;2.42;;
49366;SDS011;35245;52.026;8.540;2022-10-10T03:00:10;3.20;;;2.10;;
49366;SDS011;35245;52.026;8.540;2022-10-10T03:02:38;3.13;;;2.28;;
49366;SDS011;35245;52.026;8.540;2022-10-10T03:05:07;5.20;;;2.45;;
49366;SDS011;35245;52.026;8.540;2022-10-10T03:07:34;4.32;;;2.28;;
49366;SDS011;35245;52.026;8.540;2022-10-10T03:10:02;6.93;;;2.30;;
49366;SDS011;35245;52.026;8.540;2022-10-10T03:12:30;5.20;;;2.70;;
49366;SDS011;35245;52.026;8.540;2022-10-10T03:14:57;7.82;;;3.08;;
49366;SDS011;35245;52.026;8.540;2022-10-10T03:17:24;5.30;;;2.88;;
49366;SDS011;35245;52.026;8.540;2022-10-10T03:19:51;5.00;;;2.13;;
49366;SDS011;35245;52.026;8.540;2022-10-10T03:22:19;4.93;;;2.22;;
49366;SDS011;35245;52.026;8.540;2022-10-10T03:24:46;4.50;;;2.63;;
49366;SDS011;35245;52.026;8.540;2022-10-10T03:27:13;5.28;;;2.17;;
49366;SDS011;35245;52.026;8.540;2022-10-10T03:29:40;4.28;;;2.17;;
49366;SDS011;35245;52.026;8.540;2022-10-10T03:32:07;4.68;;;2.33;;
49366;SDS011;35245;52.026;8.540;2022-10-10T03:34:34;5.82;;;2.58;;
49366;SDS011;35245;52.026;8.540;2022-10-10T03:37:01;3.72;;;2.40;;
49366;SDS011;35245;52.026;8.540;2022-10-10T03:39:30;3.70;;;2.42;;
49366;SDS011;35245;52.026;8.540;2022-10-10T03:41:57;2.90;;;1.95;;
49366;SDS011;35245;52.026;8.540;2022-10-10T03:44:24;13.23;;;7.55;;
49366;SDS011;35245;52.026;8.540;2022-10-10T03:46:51;4.07;;;2.20;;
49366;SDS011;35245;52.026;8.540;2022-10-10T03:49:18;5.60;;;2.40;;
49366;SDS011;35245;52.026;8.540;2022-10-10T03:51:48;3.92;;;2.30;;
49366;SDS011;35245;52.026;8.540;2022-10-10T03:54:15;5.18;;;2.42;;
49366;SDS011;35245;52.026;8.540;2022-10-10T03:56:43;6.82;;;2.60;;
49366;SDS011;35245;52.026;8.540;2022-10-10T03:59:10;6.25;;;2.53;;
49366;SDS011;35245;52.026;8.540;2022-10-10T04:01:37;4.07;;;1.98;;
49366;SDS011;35245;52.026;8.540;2022-10-10T04:04:04;6.35;;;2.80;;
49366;SDS011;35245;52.026;8.540;2022-10-10T04:06:31;5.18;;;2.22;;
49366;SDS011;35245;52.026;8.540;2022-10-10T04:08:58;5.25;;;2.10;;
49366;SDS011;35245;52.026;8.540;2022-10-10T04:11:25;3.20;;;2.05;;
49366;SDS011;35245;52.026;8.540;2022-10-10T04:13:54;4.85;;;1.85;;
49366;SDS011;35245;52.026;8.540;2022-10-10T04:16:21;4.07;;;1.92;;
49366;SDS011;35245;52.026;8.540;2022-10-10T04:18:48;5.38;;;2.10;;
49366;SDS011;35245;52.026;8.540;2022-10-10T04:21:15;4.28;;;2.17;;
49366;SDS011;35245;52.026;8.540;2022-10-10T04:23:42;4.65;;;2.45;;
49366;SDS011;35245;52.026;8.540;2022-10-10T04:26:09;3.72;;;1.83;;
49366;SDS011;35245;52.026;8.540;2022-10-10T04:28:36;6.07;;;2.40;;
49366;SDS011;35245;52.026;8.540;2022-10-10T04:31:05;5.00;;;2.42;;
49366;SDS011;35245;52.026;8.540;2022-10-10T04:33:32;4.05;;;2.13;;
49366;SDS011;35245;52.026;8.540;2022-10-10T04:35:59;6.88;;;2.92;;
49366;SDS011;35245;52.026;8.540;2022-10-10T04:38:27;6.28;;;2.40;;
49366;SDS011;35245;52.026;8.540;2022-10-10T04:40:54;3.90;;;2.20;;
49366;SDS011;35245;52.026;8.540;2022-10-10T04:43:21;4.90;;;2.65;;
49366;SDS011;35245;52.026;8.540;2022-10-10T04:45:48;3.47;;;2.20;;
49366;SDS011;35245;52.026;8.540;2022-10-10T04:48:16;6.45;;;3.00;;
49366;SDS011;35245;52.026;8.540;2022-10-10T04:50:43;6.25;;;2.60;;
49366;SDS011;35245;52.026;8.540;2022-10-10T04:53:10;8.10;;;2.30;;
49366;SDS011;35245;52.026;8.540;2022-10-10T04:55:37;5.13;;;2.25;;
49366;SDS011;35245;52.026;8.540;2022-10-10T04:58:04;6.60;;;3.15;;
49366;SDS011;35245;52.026;8.540;2022-10-10T05:00:31;6.43;;;2.45;;
49366;SDS011;35245;52.026;8.540;2022-10-10T05:02:58;6.43;;;2.80;;
49366;SDS011;35245;52.026;8.540;2022-10-10T05:05:26;4.45;;;2.72;;
49366;SDS011;35245;52.026;8.540;2022-10-10T05:07:53;6.40;;;2.38;;
49366;SDS011;35245;52.026;8.540;2022-10-10T05:10:23;7.10;;;2.78;;
49366;SDS011;35245;52.026;8.540;2022-10-10T05:12:50;5.15;;;2.83;;
49366;SDS011;35245;52.026;8.540;2022-10-10T05:15:17;5.03;;;2.53;;
49366;SDS011;35245;52.026;8.540;2022-10-10T05:17:45;8.55;;;3.47;;
49366;SDS011;35245;52.026;8.540;2022-10-10T05:20:12;5.40;;;3.05;;
49366;SDS011;35245;52.026;8.540;2022-10-10T05:22:40;7.03;;;3.22;;
49366;SDS011;35245;52.026;8.540;2022-10-10T05:25:07;11.98;;;3.65;;
49366;SDS011;35245;52.026;8.540;2022-10-10T05:27:35;10.18;;;3.97;;
49366;SDS011;35245;52.026;8.540;2022-10-10T05:30:02;8.38;;;3.55;;
49366;SDS011;35245;52.026;8.540;2022-10-10T05:32:29;7.05;;;3.25;;
49366;SDS011;35245;52.026;8.540;2022-10-10T05:34:56;7.45;;;3.03;;
49366;SDS011;35245;52.026;8.540;2022-10-10T05:37:23;8.00;;;4.00;;
49366;SDS011;35245;52.026;8.540;2022-10-10T05:39:51;5.60;;;3.22;;
49366;SDS011;35245;52.026;8.540;2022-10-10T05:42:18;6.20;;;3.58;;
49366;SDS011;35245;52.026;8.540;2022-10-10T05:44:45;8.50;;;3.88;;
49366;SDS011;35245;52.026;8.540;2022-10-10T05:47:12;7.82;;;3.80;;
49366;SDS011;35245;52.026;8.540;2022-10-10T05:49:40;7.93;;;3.65;;
49366;SDS011;35245;52.026;8.540;2022-10-10T05:52:06;4.93;;;3.20;;
49366;SDS011;35245;52.026;8.540;2022-10-10T05:54:33;9.75;;;3.38;;
49366;SDS011;35245;52.026;8.540;2022-10-10T05:57:02;5.85;;;2.88;;
49366;SDS011;35245;52.026;8.540;2022-10-10T05:59:29;7.15;;;3.38;;
49366;SDS011;35245;52.026;8.540;2022-10-10T06:01:56;7.00;;;3.40;;
49366;SDS011;35245;52.026;8.540;2022-10-10T06:04:23;7.78;;;3.80;;
49366;SDS011;35245;52.026;8.540;2022-10-10T06:06:51;7.88;;;3.53;;
49366;SDS011;35245;52.026;8.540;2022-10-10T06:09:18;7.50;;;3.83;;
49366;SDS011;35245;52.026;8.540;2022-10-10T06:11:44;7.47;;;3.78;;
49366;SDS011;35245;52.026;8.540;2022-10-10T06:14:13;7.57;;;3.83;;
49366;SDS011;35245;52.026;8.540;2022-10-10T06:16:40;8.75;;;4.38;;
49366;SDS011;35245;52.026;8.540;2022-10-10T06:19:09;6.50;;;3.78;;
49366;SDS011;35245;52.026;8.540;2022-10-10T06:21:36;8.32;;;4.13;;
49366;SDS011;35245;52.026;8.540;2022-10-10T06:24:03;9.60;;;4.63;;
49366;SDS011;35245;52.026;8.540;2022-10-10T06:26:30;8.20;;;3.80;;
49366;SDS011;35245;52.026;8.540;2022-10-10T06:28:57;7.72;;;4.35;;
49366;SDS011;35245;52.026;8.540;2022-10-10T06:31:26;9.65;;;4.60;;
49366;SDS011;35245;52.026;8.540;2022-10-10T06:33:53;7.55;;;4.72;;
49366;SDS011;35245;52.026;8.540;2022-10-10T06:36:20;6.82;;;4.20;;
49366;SDS011;35245;52.026;8.540;2022-10-10T06:38:49;5.78;;;3.72;;
49366;SDS011;35245;52.026;8.540;2022-10-10T06:41:17;9.23;;;4.85;;
49366;SDS011;35245;52.026;8.540;2022-10-10T06:43:43;10.80;;;5.03;;
49366;SDS011;35245;52.026;8.540;2022-10-10T06:46:10;6.60;;;4.00;;
49366;SDS011;35245;52.026;8.540;2022-10-10T06:48:39;7.60;;;4.53;;
49366;SDS011;35245;52.026;8.540;2022-10-10T06:51:06;6.80;;;4.63;;
49366;SDS011;35245;52.026;8.540;2022-10-10T06:53:34;7.75;;;4.50;;
49366;SDS011;35245;52.026;8.540;2022-10-10T06:56:01;13.65;;;3.78;;
49366;SDS011;35245;52.026;8.540;2022-10-10T06:58:29;7.70;;;4.30;;
49366;SDS011;35245;52.026;8.540;2022-10-10T07:00:58;10.88;;;4.13;;
49366;SDS011;35245;52.026;8.540;2022-10-10T07:03:26;8.80;;;3.90;;
49366;SDS011;35245;52.026;8.540;2022-10-10T07:05:55;10.18;;;4.95;;
49366;SDS011;35245;52.026;8.540;2022-10-10T07:08:24;7.00;;;3.83;;
49366;SDS011;35245;52.026;8.540;2022-10-10T07:10:51;7.45;;;4.07;;
49366;SDS011;35245;52.026;8.540;2022-10-10T07:13:18;10.43;;;4.32;;
49366;SDS011;35245;52.026;8.540;2022-10-10T07:15:45;9.48;;;4.78;;
49366;SDS011;35245;52.026;8.540;2022-10-10T07:18:12;9.07;;;5.05;;
49366;SDS011;35245;52.026;8.540;2022-10-10T07:20:39;9.13;;;4.22;;
49366;SDS011;35245;52.026;8.540;2022-10-10T07:23:08;9.32;;;3.70;;
49366;SDS011;35245;52.026;8.540;2022-10-10T07:25:36;8.43;;;3.65;;
49366;SDS011;35245;52.026;8.540;2022-10-10T07:28:03;7.05;;;3.88;;
49366;SDS011;35245;52.026;8.540;2022-10-10T07:30:30;5.78;;;3.42;;
49366;SDS011;35245;52.026;8.540;2022-10-10T07:32:57;5.03;;;3.08;;
49366;SDS011;35245;52.026;8.540;2022-10-10T07:35:24;8.23;;;3.17;;
49366;SDS011;35245;52.026;8.540;2022-10-10T07:37:52;10.90;;;3.53;;
49366;SDS011;35245;52.026;8.540;2022-10-10T07:40:21;7.32;;;2.80;;
49366;SDS011;35245;52.026;8.540;2022-10-10T07:42:49;5.75;;;2.80;;
49366;SDS011;35245;52.026;8.540;2022-10-10T07:45:16;9.23;;;2.97;;
49366;SDS011;35245;52.026;8.540;2022-10-10T07:47:43;8.25;;;2.92;;
49366;SDS011;35245;52.026;8.540;2022-10-10T07:50:11;9.20;;;3.13;;
49366;SDS011;35245;52.026;8.540;2022-10-10T07:52:38;7.03;;;2.90;;
49366;SDS011;35245;52.026;8.540;2022-10-10T07:55:06;7.40;;;3.00;;
49366;SDS011;35245;52.026;8.540;2022-10-10T07:57:35;6.47;;;3.10;;
49366;SDS011;35245;52.026;8.540;2022-10-10T08:00:03;3.83;;;2.45;;
49366;SDS011;35245;52.026;8.540;2022-10-10T08:02:30;9.15;;;3.58;;
49366;SDS011;35245;52.026;8.540;2022-10-10T08:04:58;13.00;;;2.95;;
49366;SDS011;35245;52.026;8.540;2022-10-10T08:07:25;8.98;;;3.10;;
49366;SDS011;35245;52.026;8.540;2022-10-10T08:09:52;7.38;;;2.80;;
49366;SDS011;35245;52.026;8.540;2022-10-10T08:12:18;4.90;;;2.70;;
49366;SDS011;35245;52.026;8.540;2022-10-10T08:14:47;6.82;;;3.70;;
49366;SDS011;35245;52.026;8.540;2022-10-10T08:17:14;6.40;;;3.33;;
49366;SDS011;35245;52.026;8.540;2022-10-10T08:19:41;7.35;;;3.58;;
49366;SDS011;35245;52.026;8.540;2022-10-10T08:22:08;5.43;;;2.90;;
49366;SDS011;35245;52.026;8.540;2022-10-10T08:24:36;5.15;;;2.60;;
49366;SDS011;35245;52.026;8.540;2022-10-10T08:27:03;6.78;;;2.50;;
49366;SDS011;35245;52.026;8.540;2022-10-10T08:29:30;7.20;;;3.00;;
49366;SDS011;35245;52.026;8.540;2022-10-10T08:31:59;6.32;;;2.80;;
49366;SDS011;35245;52.026;8.540;2022-10-10T08:34:26;8.27;;;3.03;;
49366;SDS011;35245;52.026;8.540;2022-10-10T08:36:53;8.43;;;3.10;;
49366;SDS011;35245;52.026;8.540;2022-10-10T08:39:20;10.25;;;3.08;;
49366;SDS011;35245;52.026;8.540;2022-10-10T08:41:48;8.07;;;3.00;;
49366;SDS011;35245;52.026;8.540;2022-10-10T08:44:18;7.45;;;3.15;;
49366;SDS011;35245;52.026;8.540;2022-10-10T08:46:49;10.77;;;3.80;;
49366;SDS011;35245;52.026;8.540;2022-10-10T08:49:21;6.68;;;3.30;;
49366;SDS011;35245;52.026;8.540;2022-10-10T08:54:20;9.98;;;3.33;;
49366;SDS011;35245;52.026;8.540;2022-10-10T08:56:50;6.15;;;3.40;;
49366;SDS011;35245;52.026;8.540;2022-10-10T08:59:20;6.93;;;3.13;;
49366;SDS011;35245;52.026;8.540;2022-10-10T09:01:51;10.82;;;3.50;;
49366;SDS011;35245;52.026;8.540;2022-10-10T09:04:24;11.40;;;3.42;;
49366;SDS011;35245;52.026;8.540;2022-10-10T09:06:57;9.40;;;3.70;;
49366;SDS011;35245;52.026;8.540;2022-10-10T09:09:33;7.03;;;3.40;;
49366;SDS011;35245;52.026;8.540;2022-10-10T09:12:08;10.50;;;4.22;;
49366;SDS011;35245;52.026;8.540;2022-10-10T09:14:42;9.18;;;3.67;;
49366;SDS011;35245;52.026;8.540;2022-10-10T09:17:16;9.43;;;3.65;;
49366;SDS011;35245;52.026;8.540;2022-10-10T09:19:51;8.45;;;3.63;;
49366;SDS011;35245;52.026;8.540;2022-10-10T09:22:26;8.43;;;3.67;;
49366;SDS011;35245;52.026;8.540;2022-10-10T09:24:57;5.80;;;3.28;;
49366;SDS011;35245;52.026;8.540;2022-10-10T09:27:27;8.18;;;3.42;;
49366;SDS011;35245;52.026;8.540;2022-10-10T09:29:59;7.22;;;3.95;;
49366;SDS011;35245;52.026;8.540;2022-10-10T09:35:00;9.20;;;3.90;;
49366;SDS011;35245;52.026;8.540;2022-10-10T09:37:33;9.98;;;4.45;;
49366;SDS011;35245;52.026;8.540;2022-10-10T09:40:05;9.50;;;4.17;;
49366;SDS011;35245;52.026;8.540;2022-10-10T09:42:34;11.15;;;4.25;;
49366;SDS011;35245;52.026;8.540;2022-10-10T09:45:04;14.90;;;4.38;;
49366;SDS011;35245;52.026;8.540;2022-10-10T09:47:41;9.60;;;4.07;;
49366;SDS011;35245;52.026;8.540;2022-10-10T09:50:12;9.05;;;4.70;;
49366;SDS011;35245;52.026;8.540;2022-10-10T09:55:14;8.25;;;3.90;;
49366;SDS011;35245;52.026;8.540;2022-10-10T09:57:46;9.98;;;4.80;;
49366;SDS011;35245;52.026;8.540;2022-10-10T10:00:24;13.32;;;4.80;;
49366;SDS011;35245;52.026;8.540;2022-10-10T10:03:02;17.05;;;5.43;;
49366;SDS011;35245;52.026;8.540;2022-10-10T10:05:39;10.77;;;4.50;;
49366;SDS011;35245;52.026;8.540;2022-10-10T10:08:19;8.18;;;4.13;;
49366;SDS011;35245;52.026;8.540;2022-10-10T10:10:49;12.02;;;4.55;;
49366;SDS011;35245;52.026;8.540;2022-10-10T10:13:18;10.82;;;4.50;;
49366;SDS011;35245;52.026;8.540;2022-10-10T10:15:49;12.98;;;4.68;;
49366;SDS011;35245;52.026;8.540;2022-10-10T10:18:21;10.00;;;3.92;;
49366;SDS011;35245;52.026;8.540;2022-10-10T10:20:54;9.10;;;3.70;;
49366;SDS011;35245;52.026;8.540;2022-10-10T10:23:40;9.57;;;4.20;;
49366;SDS011;35245;52.026;8.540;2022-10-10T10:26:14;9.23;;;4.18;;
49366;SDS011;35245;52.026;8.540;2022-10-10T10:28:43;12.88;;;4.90;;
49366;SDS011;35245;52.026;8.540;2022-10-10T10:31:13;9.80;;;4.05;;
49366;SDS011;35245;52.026;8.540;2022-10-10T10:33:49;6.97;;;3.42;;
49366;SDS011;35245;52.026;8.540;2022-10-10T10:36:24;9.48;;;3.10;;
49366;SDS011;35245;52.026;8.540;2022-10-10T10:38:58;8.02;;;3.08;;
49366;SDS011;35245;52.026;8.540;2022-10-10T10:41:30;10.20;;;3.60;;
49366;SDS011;35245;52.026;8.540;2022-10-10T10:46:56;6.07;;;2.90;;
49366;SDS011;35245;52.026;8.540;2022-10-10T10:49:27;11.52;;;3.10;;
49366;SDS011;35245;52.026;8.540;2022-10-10T10:52:02;8.90;;;2.90;;
49366;SDS011;35245;52.026;8.540;2022-10-10T10:54:42;4.72;;;2.53;;
49366;SDS011;35245;52.026;8.540;2022-10-10T10:59:49;5.63;;;2.15;;
49366;SDS011;35245;52.026;8.540;2022-10-10T11:02:26;6.65;;;2.13;;
49366;SDS011;35245;52.026;8.540;2022-10-10T11:05:04;10.73;;;2.72;;
49366;SDS011;35245;52.026;8.540;2022-10-10T11:08:19;7.93;;;2.67;;
49366;SDS011;35245;52.026;8.540;2022-10-10T11:10:57;7.53;;;3.05;;
49366;SDS011;35245;52.026;8.540;2022-10-10T11:13:31;4.53;;;2.25;;
49366;SDS011;35245;52.026;8.540;2022-10-10T11:16:03;11.07;;;3.47;;
49366;SDS011;35245;52.026;8.540;2022-10-10T11:18:37;12.63;;;2.70;;
49366;SDS011;35245;52.026;8.540;2022-10-10T11:21:08;8.82;;;3.00;;
49366;SDS011;35245;52.026;8.540;2022-10-10T11:23:39;8.25;;;3.10;;
49366;SDS011;35245;52.026;8.540;2022-10-10T11:26:11;13.52;;;2.20;;
49366;SDS011;35245;52.026;8.540;2022-10-10T11:28:43;11.55;;;3.30;;
49366;SDS011;35245;52.026;8.540;2022-10-10T11:31:15;7.70;;;2.65;;
49366;SDS011;35245;52.026;8.540;2022-10-10T11:33:44;4.97;;;2.00;;
49366;SDS011;35245;52.026;8.540;2022-10-10T11:36:14;12.27;;;2.80;;
49366;SDS011;35245;52.026;8.540;2022-10-10T11:38:45;10.15;;;1.98;;
49366;SDS011;35245;52.026;8.540;2022-10-10T11:41:15;14.48;;;3.08;;
49366;SDS011;35245;52.026;8.540;2022-10-10T11:43:44;7.28;;;2.63;;
49366;SDS011;35245;52.026;8.540;2022-10-10T11:46:19;9.70;;;2.25;;
49366;SDS011;35245;52.026;8.540;2022-10-10T11:48:52;6.50;;;2.03;;
49366;SDS011;35245;52.026;8.540;2022-10-10T11:51:38;7.13;;;2.33;;
49366;SDS011;35245;52.026;8.540;2022-10-10T11:54:15;9.18;;;2.42;;
49366;SDS011;35245;52.026;8.540;2022-10-10T11:56:49;9.13;;;2.30;;
49366;SDS011;35245;52.026;8.540;2022-10-10T11:59:20;5.93;;;2.13;;
49366;SDS011;35245;52.026;8.540;2022-10-10T12:01:51;6.35;;;2.28;;
49366;SDS011;35245;52.026;8.540;2022-10-10T12:04:20;7.40;;;2.55;;
49366;SDS011;35245;52.026;8.540;2022-10-10T12:06:49;7.95;;;2.47;;
49366;SDS011;35245;52.026;8.540;2022-10-10T12:09:21;10.65;;;2.22;;
49366;SDS011;35245;52.026;8.540;2022-10-10T12:11:51;10.43;;;2.38;;
49366;SDS011;35245;52.026;8.540;2022-10-10T12:14:20;12.55;;;2.33;;
49366;SDS011;35245;52.026;8.540;2022-10-10T12:16:48;12.43;;;3.05;;
49366;SDS011;35245;52.026;8.540;2022-10-10T12:19:16;11.00;;;2.42;;
49366;SDS011;35245;52.026;8.540;2022-10-10T12:21:52;5.40;;;2.22;;
49366;SDS011;35245;52.026;8.540;2022-10-10T12:24:28;11.65;;;2.35;;
49366;SDS011;35245;52.026;8.540;2022-10-10T12:27:18;7.80;;;2.50;;
49366;SDS011;35245;52.026;8.540;2022-10-10T12:32:43;8.75;;;2.45;;
49366;SDS011;35245;52.026;8.540;2022-10-10T12:38:07;9.90;;;2.97;;
49366;SDS011;35245;52.026;8.540;2022-10-10T12:43:49;7.22;;;2.08;;
49366;SDS011;35245;52.026;8.540;2022-10-10T12:46:19;4.90;;;2.30;;
49366;SDS011;35245;52.026;8.540;2022-10-10T12:48:58;7.35;;;2.38;;
49366;SDS011;35245;52.026;8.540;2022-10-10T12:51:26;6.95;;;2.30;;
49366;SDS011;35245;52.026;8.540;2022-10-10T12:53:55;7.13;;;2.80;;
49366;SDS011;35245;52.026;8.540;2022-10-10T12:56:32;7.07;;;2.28;;
49366;SDS011;35245;52.026;8.540;2022-10-10T12:59:01;6.05;;;2.38;;
49366;SDS011;35245;52.026;8.540;2022-10-10T13:01:29;7.82;;;2.40;;
49366;SDS011;35245;52.026;8.540;2022-10-10T13:03:58;12.38;;;2.47;;
49366;SDS011;35245;52.026;8.540;2022-10-10T13:06:29;9.90;;;2.70;;
49366;SDS011;35245;52.026;8.540;2022-10-10T13:08:59;6.53;;;2.30;;
49366;SDS011;35245;52.026;8.540;2022-10-10T13:11:28;8.10;;;2.45;;
49366;SDS011;35245;52.026;8.540;2022-10-10T13:13:56;6.03;;;2.15;;
49366;SDS011;35245;52.026;8.540;2022-10-10T13:16:24;5.20;;;2.38;;
49366;SDS011;35245;52.026;8.540;2022-10-10T13:18:53;6.20;;;2.10;;
49366;SDS011;35245;52.026;8.540;2022-10-10T13:21:22;6.22;;;2.72;;
49366;SDS011;35245;52.026;8.540;2022-10-10T13:23:51;6.13;;;3.08;;
49366;SDS011;35245;52.026;8.540;2022-10-10T13:26:20;12.32;;;4.28;;
49366;SDS011;35245;52.026;8.540;2022-10-10T13:28:49;8.80;;;2.72;;
49366;SDS011;35245;52.026;8.540;2022-10-10T13:31:18;9.68;;;2.78;;
49366;SDS011;35245;52.026;8.540;2022-10-10T13:33:45;9.35;;;3.55;;
49366;SDS011;35245;52.026;8.540;2022-10-10T13:36:17;7.82;;;2.20;;
49366;SDS011;35245;52.026;8.540;2022-10-10T13:38:46;9.50;;;2.50;;
49366;SDS011;35245;52.026;8.540;2022-10-10T13:41:15;7.45;;;2.70;;
49366;SDS011;35245;52.026;8.540;2022-10-10T13:43:42;10.13;;;3.88;;
49366;SDS011;35245;52.026;8.540;2022-10-10T13:46:19;8.55;;;2.40;;
49366;SDS011;35245;52.026;8.540;2022-10-10T13:48:48;8.68;;;2.75;;
49366;SDS011;35245;52.026;8.540;2022-10-10T13:51:15;9.23;;;2.33;;
49366;SDS011;35245;52.026;8.540;2022-10-10T13:53:47;10.10;;;2.75;;
49366;SDS011;35245;52.026;8.540;2022-10-10T13:56:16;7.57;;;2.50;;
49366;SDS011;35245;52.026;8.540;2022-10-10T13:58:48;6.03;;;2.40;;
49366;SDS011;35245;52.026;8.540;2022-10-10T14:01:23;11.27;;;3.17;;
49366;SDS011;35245;52.026;8.540;2022-10-10T14:03:55;8.68;;;3.20;;
49366;SDS011;35245;52.026;8.540;2022-10-10T14:06:25;14.02;;;3.50;;
49366;SDS011;35245;52.026;8.540;2022-10-10T14:08:53;9.23;;;3.50;;
49366;SDS011;35245;52.026;8.540;2022-10-10T14:11:22;10.30;;;3.50;;
49366;SDS011;35245;52.026;8.540;2022-10-10T14:13:51;12.88;;;2.92;;
49366;SDS011;35245;52.026;8.540;2022-10-10T14:16:28;8.90;;;2.40;;
49366;SDS011;35245;52.026;8.540;2022-10-10T14:18:56;5.50;;;2.05;;
49366;SDS011;35245;52.026;8.540;2022-10-10T14:21:22;6.18;;;2.60;;
49366;SDS011;35245;52.026;8.540;2022-10-10T14:23:49;9.95;;;2.90;;
49366;SDS011;35245;52.026;8.540;2022-10-10T14:26:17;9.70;;;3.15;;
49366;SDS011;35245;52.026;8.540;2022-10-10T14:28:45;12.52;;;4.28;;
49366;SDS011;35245;52.026;8.540;2022-10-10T14:31:12;9.65;;;4.20;;
49366;SDS011;35245;52.026;8.540;2022-10-10T14:33:40;7.38;;;2.88;;
49366;SDS011;35245;52.026;8.540;2022-10-10T14:36:08;6.18;;;2.28;;
49366;SDS011;35245;52.026;8.540;2022-10-10T14:38:36;10.20;;;3.15;;
49366;SDS011;35245;52.026;8.540;2022-10-10T14:41:03;8.95;;;2.67;;
49366;SDS011;35245;52.026;8.540;2022-10-10T14:43:31;7.68;;;2.60;;
49366;SDS011;35245;52.026;8.540;2022-10-10T14:45:58;7.82;;;2.38;;
49366;SDS011;35245;52.026;8.540;2022-10-10T14:48:26;5.72;;;2.42;;
49366;SDS011;35245;52.026;8.540;2022-10-10T14:50:54;6.18;;;2.33;;
49366;SDS011;35245;52.026;8.540;2022-10-10T14:53:22;5.88;;;2.20;;
49366;SDS011;35245;52.026;8.540;2022-10-10T14:55:49;9.00;;;2.72;;
49366;SDS011;35245;52.026;8.540;2022-10-10T14:58:19;7.95;;;2.88;;
49366;SDS011;35245;52.026;8.540;2022-10-10T15:00:47;5.53;;;2.72;;
49366;SDS011;35245;52.026;8.540;2022-10-10T15:03:15;9.10;;;2.70;;
49366;SDS011;35245;52.026;8.540;2022-10-10T15:05:43;8.60;;;2.60;;
49366;SDS011;35245;52.026;8.540;2022-10-10T15:08:13;12.70;;;3.42;;
49366;SDS011;35245;52.026;8.540;2022-10-10T15:10:41;14.35;;;4.00;;
49366;SDS011;35245;52.026;8.540;2022-10-10T15:13:08;10.32;;;3.55;;
49366;SDS011;35245;52.026;8.540;2022-10-10T15:15:36;10.10;;;3.13;;
49366;SDS011;35245;52.026;8.540;2022-10-10T15:18:04;10.55;;;3.03;;
49366;SDS011;35245;52.026;8.540;2022-10-10T15:20:31;9.02;;;3.25;;
49366;SDS011;35245;52.026;8.540;2022-10-10T15:22:58;5.97;;;2.88;;
49366;SDS011;35245;52.026;8.540;2022-10-10T15:25:28;7.57;;;3.33;;